Straumvik — LEYJ — position and weather

sailwx.info

Track history (hours):
 
Tides and Currents Weather Stations Pressure Air Temp Water Temp Dewpoint Dewpoint Depression Visibility Wind Speed Wind Dir Waves Ship Positions

Straumvik

Last reported at 2015-May-05 09:07 UTC. Time now 2015-May-05 17:17 UTC.
Position N 58°20' E 006°16'.

Length 50 m; draft 5 m.

Type: Ship. MMSI: 258260000.

Date/timePositionNaut miles runAvg speedWind from/ knotsBaromVisibWave heightAir tempDewpointWater temp
2015-May-05 09:07N 58°20' E 006°16'0 0.0
2015-May-05 06:07N 58°20' E 006°16'0 0.0
2015-May-05 00:18N 58°20' E 006°16'4 5.2
2015-May-04 23:33N 58°20' E 006°08'8 7.1
2015-May-04 22:29N 58°24' E 005°56'7 6.9
2015-May-04 21:32N 58°28' E 005°46'21 6.8
2015-May-04 18:31N 58°45' E 005°26'6 6.5
2015-May-04 17:33N 58°51' E 005°29'7 7.2
2015-May-04 16:33N 58°58' E 005°33'8 7.7
2015-May-04 15:33N 59°06' E 005°33'9 8.8
2015-May-04 14:33N 59°15' E 005°35'4 0.6
2015-May-04 07:33N 59°19' E 005°37'6 6.3
2015-May-04 06:33N 59°16' E 005°26'7 2.0
2015-May-04 03:09N 59°21' E 005°18'4 6.7
2015-May-04 02:33N 59°25' E 005°14'66 1.5
2015-May-02 05:23N 60°30' E 004°50'  
2015-Apr-28 21:27N 60°19' E 005°08'11 8.2
2015-Apr-28 20:10N 60°29' E 005°15'3 0.4
2015-Apr-28 12:26N 60°31' E 005°19'0 0.0
2015-Apr-28 10:26N 60°31' E 005°19'67 2.0
2015-Apr-27 01:33N 59°24' E 005°15'10 4.7
2015-Apr-26 23:22N 59°15' E 005°22'6 7.2
2015-Apr-26 22:33N 59°12' E 005°31'8 7.7
2015-Apr-26 21:32N 59°08' E 005°45'7 7.5
2015-Apr-26 20:33N 59°02' E 005°52'7 7.2
2015-Apr-26 19:33N 58°56' E 006°01'6 6.0
2015-Apr-26 18:33N 58°52' E 006°09'0 0.0
2015-Apr-26 17:33N 58°52' E 006°09'0 0.2
2015-Apr-26 16:33N 58°52' E 006°09'0 0.0
2015-Apr-26 15:32N 58°52' E 006°09'4 4.3
2015-Apr-26 14:33N 58°54' E 006°03'8 7.7
2015-Apr-26 13:33N 58°60' E 005°53'8 7.6
2015-Apr-26 12:33N 59°07' E 005°52'9 8.5
2015-Apr-26 11:33N 59°16' E 005°55'9 8.8
2015-Apr-26 10:33N 59°25' E 005°53'3 0.5
2015-Apr-26 05:30N 59°26' E 005°49'6 6.7
2015-Apr-26 04:33N 59°20' E 005°54'8 7.9
2015-Apr-26 03:33N 59°16' E 005°41'8 7.6
2015-Apr-26 02:33N 59°16' E 005°26'10 6.7
2015-Apr-26 01:08N 59°24' E 005°17'  
Track history (hours):
 
Tides and Currents Weather Stations Pressure Air Temp Water Temp Dewpoint Dewpoint Depression Visibility Wind Speed Wind Dir Waves Ship Positions

Straumvik

Last reported at 2015-May-05 09:07 UTC. Time now 2015-May-05 17:17 UTC.
Position N 58°20' E 006°16'.

Length 50 m; draft 5 m.

Type: Ship. MMSI: 258260000.

Date/timePositionNaut miles runAvg speedWind from/ knotsBaromVisibWave heightAir tempDewpointWater temp
2015-May-05 09:07N 58°20' E 006°16'0 0.0
2015-May-05 06:07N 58°20' E 006°16'0 0.0
2015-May-05 00:18N 58°20' E 006°16'4 5.2
2015-May-04 23:33N 58°20' E 006°08'8 7.1
2015-May-04 22:29N 58°24' E 005°56'7 6.9
2015-May-04 21:32N 58°28' E 005°46'21 6.8
2015-May-04 18:31N 58°45' E 005°26'6 6.5
2015-May-04 17:33N 58°51' E 005°29'7 7.2
2015-May-04 16:33N 58°58' E 005°33'8 7.7
2015-May-04 15:33N 59°06' E 005°33'9 8.8
2015-May-04 14:33N 59°15' E 005°35'4 0.6
2015-May-04 07:33N 59°19' E 005°37'6 6.3
2015-May-04 06:33N 59°16' E 005°26'7 2.0
2015-May-04 03:09N 59°21' E 005°18'4 6.7
2015-May-04 02:33N 59°25' E 005°14'66 1.5
2015-May-02 05:23N 60°30' E 004°50'  
2015-Apr-28 21:27N 60°19' E 005°08'11 8.2
2015-Apr-28 20:10N 60°29' E 005°15'3 0.4
2015-Apr-28 12:26N 60°31' E 005°19'0 0.0
2015-Apr-28 10:26N 60°31' E 005°19'67 2.0
2015-Apr-27 01:33N 59°24' E 005°15'10 4.7
2015-Apr-26 23:22N 59°15' E 005°22'6 7.2
2015-Apr-26 22:33N 59°12' E 005°31'8 7.7
2015-Apr-26 21:32N 59°08' E 005°45'7 7.5
2015-Apr-26 20:33N 59°02' E 005°52'7 7.2
2015-Apr-26 19:33N 58°56' E 006°01'6 6.0
2015-Apr-26 18:33N 58°52' E 006°09'0 0.0
2015-Apr-26 17:33N 58°52' E 006°09'0 0.2
2015-Apr-26 16:33N 58°52' E 006°09'0 0.0
2015-Apr-26 15:32N 58°52' E 006°09'4 4.3
2015-Apr-26 14:33N 58°54' E 006°03'8 7.7
2015-Apr-26 13:33N 58°60' E 005°53'8 7.6
2015-Apr-26 12:33N 59°07' E 005°52'9 8.5
2015-Apr-26 11:33N 59°16' E 005°55'9 8.8
2015-Apr-26 10:33N 59°25' E 005°53'3 0.5
2015-Apr-26 05:30N 59°26' E 005°49'6 6.7
2015-Apr-26 04:33N 59°20' E 005°54'8 7.9
2015-Apr-26 03:33N 59°16' E 005°41'8 7.6
2015-Apr-26 02:33N 59°16' E 005°26'10 6.7
2015-Apr-26 01:08N 59°24' E 005°17'  

Dump ship's entire track history